Time;durP1;ratioP1;P1;durP2;ratioP2;P2;SDS_P1;SDS_P2;PMS_P1;PMS_P2;Temp;Humidity;BMP_temperature;BMP_pressure;BME280_temperature;BME280_humidity;BME280_pressure;Samples;Min_cycle;Max_cycle;Signal;HPM_P1;HPM_P2
2022/01/25 00:15:40;;;;;;;472.07;183.87;;;;;;;-14.05;56.90;95760.55;1642699;86;21074;-48
2022/01/25 00:26:18;;;;;;;515.35;200.18;;;;;;;-14.09;55.36;95755.00;1651733;86;20958;-46
2022/01/25 00:31:14;;;;;;;508.53;209.62;;;;;;;-14.31;56.21;95757.22;1641626;86;21232;-47
2022/01/25 00:33:34;;;;;;;510.67;204.82;;;;;;;-14.30;56.25;95754.06;1633643;86;20987;-47
2022/01/25 00:36:01;;;;;;;516.23;197.07;;;;;;;-14.22;56.39;95754.83;1633661;87;21188;-47
2022/01/25 00:38:28;;;;;;;512.38;198.32;;;;;;;-14.10;55.74;95757.94;1629294;87;20994;-46
2022/01/25 00:40:55;;;;;;;516.73;205.55;;;;;;;-14.08;55.66;95750.53;1638294;86;21039;-48
2022/01/25 00:43:26;;;;;;;528.38;205.47;;;;;;;-14.01;55.55;95755.79;1633628;86;21017;-46
2022/01/25 00:45:56;;;;;;;486.28;176.35;;;;;;;-13.95;55.41;95759.18;1638703;86;21079;-47
2022/01/25 00:48:32;;;;;;;503.10;200.30;;;;;;;-14.02;55.29;95759.50;1623703;86;21079;-47
2022/01/25 00:50:50;;;;;;;486.52;195.68;;;;;;;-14.05;55.23;95761.33;1619167;87;21003;-47
2022/01/25 00:56:02;;;;;;;519.05;207.07;;;;;;;-13.98;55.60;95757.08;1576709;89;20966;-48
2022/01/25 00:58:30;;;;;;;458.05;173.93;;;;;;;-13.93;55.56;95757.09;1641840;86;21466;-46
2022/01/25 01:00:58;;;;;;;515.70;198.87;;;;;;;-13.85;54.93;95759.16;1651358;86;21775;-47
2022/01/25 01:03:24;;;;;;;436.40;160.65;;;;;;;-14.07;54.77;95759.48;1652479;86;21061;-48
2022/01/25 01:05:51;;;;;;;437.60;170.25;;;;;;;-14.21;54.85;95761.69;1649438;85;21503;-47
2022/01/25 01:08:19;;;;;;;452.52;174.05;;;;;;;-14.50;54.77;95758.84;1645419;86;21023;-46
2022/01/25 01:10:46;;;;;;;455.98;172.47;;;;;;;-14.70;55.24;95754.91;1654562;84;21466;-47
2022/01/25 01:16:07;;;;;;;451.40;182.07;;;;;;;-14.69;55.60;95747.77;1642828;86;21462;-47
2022/01/25 01:29:52;;;;;;;482.47;180.07;;;;;;;-14.61;56.02;95738.78;1660545;85;20985;-47
2022/01/25 01:33:11;;;;;;;442.85;168.28;;;;;;;-14.51;55.45;95726.89;1644800;86;21022;-47
2022/01/25 01:40:01;;;;;;;432.20;165.20;;;;;;;-14.46;54.88;95735.34;1634010;86;21140;-45
2022/01/25 01:44:52;;;;;;;508.65;197.90;;;;;;;-14.49;55.36;95726.09;1593554;88;21147;-47
2022/01/25 01:47:12;;;;;;;490.15;195.12;;;;;;;-14.47;55.47;95724.52;1620292;87;21196;-46
2022/01/25 01:49:41;;;;;;;480.22;188.22;;;;;;;-14.49;55.42;95727.97;1596377;89;21110;-46
2022/01/25 01:52:06;;;;;;;482.62;185.90;;;;;;;-14.49;55.37;95727.97;1563324;89;21166;-47
2022/01/25 01:54:35;;;;;;;474.42;183.47;;;;;;;-14.53;55.18;95719.78;1623897;87;21416;-47
2022/01/25 01:57:04;;;;;;;435.35;161.55;;;;;;;-14.62;55.30;95710.80;1641649;86;20983;-46
2022/01/25 01:59:31;;;;;;;460.37;179.38;;;;;;;-14.69;55.13;95705.53;1648433;86;20994;-47
2022/01/25 02:01:58;;;;;;;502.75;199.30;;;;;;;-14.90;54.99;95715.86;1635354;86;21093;-47
2022/01/25 02:04:24;;;;;;;444.52;170.70;;;;;;;-15.06;55.52;95703.22;1645717;86;21145;-47
2022/01/25 02:06:51;;;;;;;463.80;177.75;;;;;;;-15.18;55.41;95708.50;1643401;86;21446;-46
2022/01/25 02:09:18;;;;;;;433.72;166.47;;;;;;;-15.34;55.57;95712.22;1654531;86;21056;-48
2022/01/25 02:11:45;;;;;;;447.37;165.50;;;;;;;-15.43;55.60;95707.19;1642039;86;21540;-46
2022/01/25 02:14:13;;;;;;;430.73;168.65;;;;;;;-15.49;56.00;95698.24;1649061;86;20970;-46
2022/01/25 02:24:40;;;;;;;464.45;171.55;;;;;;;-15.23;55.78;95699.25;1638577;86;20997;-46
2022/01/25 02:27:07;;;;;;;294.60;102.25;;;;;;;-15.21;55.97;95698.48;1646133;86;21042;-47
2022/01/25 02:29:37;;;;;;;404.30;154.27;;;;;;;-15.12;56.15;95699.53;1643317;86;21151;-47
2022/01/25 02:32:07;;;;;;;475.83;187.10;;;;;;;-15.24;55.93;95704.27;1646723;87;21027;-46
2022/01/25 02:34:34;;;;;;;451.22;171.75;;;;;;;-15.46;56.26;95699.81;1642088;86;21453;-48
2022/01/25 02:37:09;;;;;;;423.25;151.70;;;;;;;-15.45;56.66;95694.80;1664803;85;21097;-48
2022/01/25 02:39:42;;;;;;;403.68;146.20;;;;;;;-15.32;57.14;95692.97;1651517;85;21561;-47
2022/01/25 02:42:08;;;;;;;455.87;168.05;;;;;;;-15.35;56.18;95690.86;1637010;86;21137;-47
2022/01/25 02:44:35;;;;;;;424.60;151.18;;;;;;;-15.49;56.02;95689.80;1635822;86;21571;-47
2022/01/25 02:49:35;;;;;;;405.33;145.02;;;;;;;-15.37;56.13;95689.80;1635720;86;21057;-48
2022/01/25 02:52:05;;;;;;;405.30;145.00;;;;;;;-15.42;55.85;95683.72;1646699;86;21145;-48
2022/01/25 02:54:35;;;;;;;401.75;152.02;;;;;;;-15.32;56.06;95683.73;1645329;86;21158;-46
2022/01/25 02:57:01;;;;;;;402.37;149.12;;;;;;;-15.27;56.05;95681.06;1607849;87;20975;-47
2022/01/25 02:59:30;;;;;;;388.18;143.70;;;;;;;-15.25;56.08;95673.67;1630826;86;21003;-47
2022/01/25 03:01:58;;;;;;;394.45;143.10;;;;;;;-15.18;56.12;95678.17;1641259;86;21153;-46
2022/01/25 03:04:27;;;;;;;431.55;165.43;;;;;;;-15.05;56.19;95677.61;1648122;85;20981;-47
2022/01/25 03:06:53;;;;;;;415.95;153.72;;;;;;;-14.95;55.71;95686.85;1640430;85;21106;-46
2022/01/25 03:09:20;;;;;;;445.73;175.12;;;;;;;-14.91;55.42;95689.21;1640641;86;20998;-48
2022/01/25 03:11:50;;;;;;;428.38;168.35;;;;;;;-15.08;55.27;95679.47;1630802;85;21169;-47
2022/01/25 03:14:21;;;;;;;437.85;162.77;;;;;;;-15.12;55.70;95688.98;1643617;86;21532;-46
2022/01/25 03:19:41;;;;;;;414.07;154.68;;;;;;;-15.12;55.66;95692.42;1637594;86;21210;-47
2022/01/25 03:21:58;;;;;;;390.38;146.77;;;;;;;-15.20;55.55;95696.89;1635540;86;21718;-46
2022/01/25 03:24:25;;;;;;;406.35;153.50;;;;;;;-15.18;55.90;95690.05;1644489;86;21077;-46
2022/01/25 03:26:53;;;;;;;400.02;150.53;;;;;;;-15.09;55.64;95687.92;1643722;86;20982;-46
2022/01/25 03:29:20;;;;;;;403.45;151.30;;;;;;;-14.94;56.15;95687.11;1631446;86;20993;-46
2022/01/25 03:31:48;;;;;;;420.52;162.30;;;;;;;-14.77;55.58;95680.50;1609362;87;21797;-46
2022/01/25 03:34:15;;;;;;;415.38;159.90;;;;;;;-14.58;55.77;95685.47;1628620;86;21117;-45
2022/01/25 03:36:42;;;;;;;407.73;151.07;;;;;;;-14.38;55.04;95678.00;1627437;87;21456;-48
2022/01/25 03:39:09;;;;;;;438.40;165.90;;;;;;;-14.32;54.45;95680.88;1652590;86;21034;-46
2022/01/25 03:41:35;;;;;;;413.85;159.43;;;;;;;-14.36;54.21;95667.95;1649747;86;21050;-47
2022/01/25 03:44:02;;;;;;;456.10;182.65;;;;;;;-14.31;53.84;95669.25;1619289;86;21812;-46
2022/01/25 03:46:37;;;;;;;420.12;162.30;;;;;;;-14.38;53.80;95667.44;1645266;86;20981;-48
2022/01/25 03:51:47;;;;;;;485.30;188.57;;;;;;;-14.30;53.41;95658.97;1641050;86;21101;-46
2022/01/25 03:54:13;;;;;;;499.82;195.43;;;;;;;-14.28;52.79;95658.17;1646615;86;20961;-47
2022/01/25 03:56:42;;;;;;;524.80;203.40;;;;;;;-14.54;52.79;95655.34;1631949;87;21829;-47
2022/01/25 03:59:08;;;;;;;486.20;194.07;;;;;;;-14.76;53.11;95652.24;1642653;86;21066;-47
2022/01/25 04:01:35;;;;;;;483.20;187.77;;;;;;;-15.07;53.71;95642.80;1645559;85;21068;-47
2022/01/25 04:04:08;;;;;;;489.15;187.75;;;;;;;-15.08;54.54;95645.17;1639894;86;20972;-46
2022/01/25 04:06:35;;;;;;;453.95;176.50;;;;;;;-14.91;54.85;95649.63;1642952;85;20978;-46
2022/01/25 04:09:07;;;;;;;463.25;169.15;;;;;;;-14.82;54.31;95642.22;1638438;85;21109;-47
2022/01/25 04:11:36;;;;;;;413.55;161.25;;;;;;;-14.82;54.02;95645.41;1640972;86;20990;-47
2022/01/25 04:14:06;;;;;;;444.35;169.05;;;;;;;-14.85;53.87;95641.98;1673614;84;21104;-47
2022/01/25 04:16:37;;;;;;;440.38;167.03;;;;;;;-14.85;53.71;95640.67;1641253;85;21039;-47
2022/01/25 04:19:17;;;;;;;429.30;163.70;;;;;;;-14.77;53.64;95640.11;1651092;84;20982;-47
2022/01/25 04:26:53;;;;;;;470.57;188.50;;;;;;;-14.76;53.18;95643.01;1636758;86;20997;-47
2022/01/25 04:29:19;;;;;;;412.70;152.65;;;;;;;-15.09;53.58;95644.41;1633793;86;20989;-46
2022/01/25 04:31:46;;;;;;;429.77;168.05;;;;;;;-15.11;54.30;95634.64;1647074;85;21014;-47
2022/01/25 04:34:26;;;;;;;423.80;162.80;;;;;;;-15.14;54.26;95633.84;1650211;86;21101;-47
2022/01/25 04:50:19;;;;;;;458.83;175.32;;;;;;;-15.11;54.99;95629.88;1639494;86;20971;-48
2022/01/25 04:52:54;;;;;;;458.07;169.02;;;;;;;-15.07;54.65;95628.28;1634876;85;21450;-47
2022/01/25 04:55:20;;;;;;;435.55;163.22;;;;;;;-15.11;54.41;95620.66;1609345;86;20998;-47
2022/01/25 04:57:53;;;;;;;419.95;156.90;;;;;;;-15.17;54.33;95617.77;1635345;86;21481;-47
2022/01/25 05:00:21;;;;;;;415.17;155.52;;;;;;;-15.20;54.48;95622.27;1635876;85;21304;-47
2022/01/25 05:02:54;;;;;;;433.20;159.52;;;;;;;-15.23;54.66;95624.09;1649006;85;21612;-47
2022/01/25 05:05:34;;;;;;;437.55;161.40;;;;;;;-15.05;55.06;95623.02;1646459;84;21176;-46
2022/01/25 05:08:05;;;;;;;433.02;164.43;;;;;;;-14.95;54.33;95616.93;1655052;86;21054;-46
2022/01/25 05:10:29;;;;;;;395.95;146.22;;;;;;;-14.96;54.44;95623.27;1641262;85;21449;-46
2022/01/25 05:13:13;;;;;;;469.90;171.68;;;;;;;-14.90;54.42;95613.76;1646072;84;21142;-48
2022/01/25 05:15:37;;;;;;;402.97;150.57;;;;;;;-14.92;53.97;95613.75;1641718;85;21186;-47
2022/01/25 05:23:29;;;;;;;422.82;162.03;;;;;;;-15.34;54.46;95604.11;1644264;86;21043;-47
2022/01/25 05:25:55;;;;;;;364.72;135.45;;;;;;;-15.30;54.47;95615.19;1628607;87;21145;-47
2022/01/25 05:28:25;;;;;;;387.33;145.72;;;;;;;-15.30;54.36;95603.84;1650385;86;21027;-47
2022/01/25 05:30:53;;;;;;;404.55;149.82;;;;;;;-15.46;54.44;95612.81;1649981;86;20983;-47
2022/01/25 05:33:22;;;;;;;392.60;139.37;;;;;;;-15.41;54.97;95612.80;1648876;85;21612;-46
2022/01/25 05:35:49;;;;;;;424.45;155.22;;;;;;;-15.21;55.13;95604.31;1643820;86;21018;-46
2022/01/25 05:38:15;;;;;;;406.73;158.32;;;;;;;-15.18;54.60;95599.05;1626840;86;21251;-49
2022/01/25 05:40:49;;;;;;;411.77;154.00;;;;;;;-15.08;54.91;95601.65;1638734;86;21129;-50
2022/01/25 05:46:02;;;;;;;440.70;172.80;;;;;;;-14.81;54.45;95603.44;1657170;86;21030;-51
2022/01/25 05:48:27;;;;;;;421.07;161.35;;;;;;;-14.68;53.99;95604.97;1645533;85;21553;-47
2022/01/25 05:50:56;;;;;;;455.35;174.18;;;;;;;-14.72;53.57;95599.17;1624160;86;21098;-48
2022/01/25 05:53:22;;;;;;;436.25;163.75;;;;;;;-14.72;54.01;95602.62;1654031;85;21101;-46
2022/01/25 05:55:49;;;;;;;392.43;148.68;;;;;;;-14.60;53.66;95600.98;1645682;86;21192;-46
2022/01/25 05:58:18;;;;;;;390.25;148.85;;;;;;;-14.59;53.51;95598.61;1637055;86;21085;-47
2022/01/25 06:00:44;;;;;;;402.23;158.22;;;;;;;-14.38;53.71;95607.50;1638419;85;21576;-46
2022/01/25 06:03:11;;;;;;;363.92;135.12;;;;;;;-14.26;53.40;95597.93;1637069;86;21022;-46
2022/01/25 06:05:39;;;;;;;478.02;196.02;;;;;;;-14.40;53.44;95599.58;1645337;85;21018;-47
2022/01/25 06:08:05;;;;;;;421.22;165.15;;;;;;;-14.54;54.39;95605.17;1647951;86;21093;-46
2022/01/25 06:10:33;;;;;;;460.85;191.75;;;;;;;-14.51;54.52;95604.63;1639153;86;20990;-46
2022/01/25 06:12:59;;;;;;;515.45;211.97;;;;;;;-14.59;54.80;95600.70;1652038;85;21037;-47
2022/01/25 06:15:27;;;;;;;463.05;189.05;;;;;;;-14.63;55.48;95601.53;1649899;86;21454;-46
2022/01/25 06:17:55;;;;;;;364.27;145.55;;;;;;;-14.46;56.15;95598.03;1664892;84;20917;-46
2022/01/25 06:20:22;;;;;;;415.60;179.00;;;;;;;-14.24;56.21;95592.61;1639167;86;21007;-48
2022/01/25 06:22:49;;;;;;;476.22;217.53;;;;;;;-13.90;56.72;95600.59;1646575;86;21586;-48
2022/01/25 06:25:16;;;;;;;416.35;174.12;;;;;;;-13.49;56.21;95610.06;1614975;86;21037;-47
2022/01/25 06:27:43;;;;;;;370.30;152.15;;;;;;;-13.19;55.91;95595.27;1638561;86;21140;-46
2022/01/25 06:30:13;;;;;;;331.27;136.92;;;;;;;-12.84;55.87;95597.55;1635446;86;20973;-47
2022/01/25 06:32:41;;;;;;;434.55;171.15;;;;;;;-12.58;54.91;95595.38;1649913;85;21093;-48
2022/01/25 06:35:08;;;;;;;427.82;171.82;;;;;;;-12.52;54.77;95579.16;1641680;86;21037;-47
2022/01/25 06:37:37;;;;;;;408.57;164.28;;;;;;;-12.48;54.25;95572.76;1647372;86;21029;-47
2022/01/25 06:40:07;;;;;;;481.63;196.35;;;;;;;-12.51;54.12;95578.63;1649296;86;21130;-47
2022/01/25 06:42:36;;;;;;;483.25;196.63;;;;;;;-12.63;54.42;95576.39;1639073;86;21128;-50
2022/01/25 06:45:14;;;;;;;398.27;154.38;;;;;;;-12.48;54.77;95569.59;1638160;86;21088;-48
2022/01/25 06:47:38;;;;;;;399.30;161.07;;;;;;;-12.23;54.93;95565.28;1636298;86;21068;-47
2022/01/25 06:50:06;;;;;;;371.57;153.72;;;;;;;-12.06;54.69;95565.03;1638128;86;21483;-47
2022/01/25 06:52:36;;;;;;;419.75;170.62;;;;;;;-11.94;54.79;95555.35;1633430;86;21128;-47
2022/01/25 06:55:05;;;;;;;455.43;180.67;;;;;;;-11.93;55.01;95556.92;1649402;86;21521;-49
2022/01/25 06:57:34;;;;;;;322.33;136.75;;;;;;;-11.83;54.58;95548.80;1615428;87;21021;-48
2022/01/25 07:00:01;;;;;;;244.03;106.12;;;;;;;-11.70;54.87;95544.88;1611529;86;21202;-47
2022/01/25 07:02:28;;;;;;;311.73;144.30;;;;;;;-11.52;54.69;95545.36;1599394;88;21489;-49
2022/01/25 07:04:54;;;;;;;361.90;159.32;;;;;;;-11.43;54.95;95544.16;1615771;86;21853;-49
2022/01/25 07:07:21;;;;;;;496.50;234.87;;;;;;;-11.30;54.82;95535.45;1618440;86;21598;-49
2022/01/25 07:09:48;;;;;;;501.67;243.00;;;;;;;-11.14;54.84;95540.75;1629077;86;21083;-47
2022/01/25 07:12:15;;;;;;;479.75;230.75;;;;;;;-10.90;54.35;95546.16;1609752;87;21548;-52
2022/01/25 07:14:44;;;;;;;437.38;200.43;;;;;;;-10.78;54.38;95527.84;1614777;87;22220;-50
2022/01/25 07:17:12;;;;;;;444.58;204.80;;;;;;;-10.71;54.12;95531.44;1602599;87;21174;-51
2022/01/25 07:19:41;;;;;;;435.00;208.85;;;;;;;-10.75;54.54;95529.13;1597392;87;21063;-54
2022/01/25 07:22:10;;;;;;;539.83;258.20;;;;;;;-10.54;54.71;95531.64;1598392;89;21075;-49
2022/01/25 07:24:37;;;;;;;531.65;250.53;;;;;;;-10.28;54.68;95522.85;1614734;87;21054;-49
2022/01/25 07:27:05;;;;;;;521.05;253.02;;;;;;;-9.99;54.24;95520.61;1621211;88;21089;-52
2022/01/25 07:29:31;;;;;;;547.63;267.62;;;;;;;-9.89;53.94;95513.18;1618641;88;21443;-50
2022/01/25 07:31:59;;;;;;;549.50;267.87;;;;;;;-9.82;54.26;95505.55;1619533;87;21046;-47
2022/01/25 07:34:26;;;;;;;521.45;240.62;;;;;;;-9.56;54.23;95515.88;1618288;88;21529;-49
2022/01/25 07:36:53;;;;;;;446.42;209.05;;;;;;;-9.36;53.83;95511.39;1596420;87;21077;-48
2022/01/25 07:39:20;;;;;;;370.88;167.07;;;;;;;-9.36;53.54;95500.73;1611817;87;21093;-48
2022/01/25 07:41:48;;;;;;;430.10;195.35;;;;;;;-9.35;53.80;95498.31;1630886;85;21082;-48
2022/01/25 07:44:20;;;;;;;340.27;155.27;;;;;;;-9.26;53.94;95496.47;1623035;87;21152;-47
2022/01/25 07:46:47;;;;;;;327.10;149.05;;;;;;;-9.19;53.93;95492.84;1603794;88;21144;-48
2022/01/25 07:49:14;;;;;;;384.37;181.85;;;;;;;-9.21;53.78;95492.34;1603685;88;21064;-48
2022/01/25 07:51:42;;;;;;;331.93;151.20;;;;;;;-9.21;54.17;95489.67;1601698;88;21177;-48
2022/01/25 07:54:08;;;;;;;300.25;135.95;;;;;;;-8.98;53.85;95484.56;1560484;89;21948;-47
2022/01/25 07:56:37;;;;;;;340.73;156.18;;;;;;;-8.91;53.82;95483.56;1602385;89;21089;-47
2022/01/25 07:59:03;;;;;;;295.15;138.90;;;;;;;-8.87;53.70;95473.86;1603461;87;21179;-50
2022/01/25 08:01:30;;;;;;;255.92;124.35;;;;;;;-8.67;53.98;95483.97;1583802;87;21073;-51
2022/01/25 08:03:57;;;;;;;286.80;142.40;;;;;;;-8.44;53.77;95473.47;1601636;88;21106;-48
2022/01/25 08:06:24;;;;;;;314.85;152.27;;;;;;;-8.16;53.67;95473.39;1597730;88;21158;-46
2022/01/25 08:08:52;;;;;;;271.87;131.75;;;;;;;-7.79;53.48;95478.13;1582777;88;21460;-49
2022/01/25 08:11:20;;;;;;;279.35;141.28;;;;;;;-7.46;53.22;95474.68;1623003;85;21549;-48
2022/01/25 08:13:52;;;;;;;290.23;139.00;;;;;;;-7.19;52.64;95471.63;1629676;85;21038;-48
2022/01/25 08:16:16;;;;;;;246.87;121.35;;;;;;;-6.95;52.31;95475.34;1638529;84;21493;-48
2022/01/25 08:18:43;;;;;;;263.15;127.32;;;;;;;-6.86;51.89;95465.95;1638393;85;21838;-48
2022/01/25 08:21:10;;;;;;;248.05;123.13;;;;;;;-7.03;51.61;95473.23;1635098;85;21113;-50
2022/01/25 08:23:39;;;;;;;219.68;116.82;;;;;;;-7.25;51.96;95468.10;1629370;86;21017;-47
2022/01/25 08:26:06;;;;;;;178.68;96.40;;;;;;;-7.34;52.12;95473.46;1614167;88;21115;-50
2022/01/25 08:28:36;;;;;;;184.18;95.77;;;;;;;-7.27;52.15;95464.97;1650022;85;21087;-52
2022/01/25 08:31:08;;;;;;;167.93;90.22;;;;;;;-7.12;51.90;95463.13;1654015;85;21836;-49
2022/01/25 08:35:05;;;;;;;159.93;85.75;;;;;;;-6.74;51.58;95454.81;1803185;77;25686;-53
2022/01/25 08:37:32;;;;;;;113.22;60.85;;;;;;;-6.78;51.22;95460.58;1784164;79;22215;-50
2022/01/25 08:39:58;;;;;;;131.25;69.65;;;;;;;-6.93;51.04;95459.77;1782242;78;21152;-54
2022/01/25 08:43:20;;;;;;;119.33;63.13;;;;;;;-6.95;51.66;95447.27;1753150;79;25778;-50
2022/01/25 08:45:46;;;;;;;157.80;83.92;;;;;;;-6.73;51.43;95443.02;1714163;81;21604;-48
2022/01/25 08:48:13;;;;;;;163.47;80.65;;;;;;;-6.72;51.27;95440.56;1726304;80;21133;-49
2022/01/25 08:50:43;;;;;;;156.32;81.10;;;;;;;-6.59;51.29;95440.11;1715570;82;22379;-48
2022/01/25 08:53:11;;;;;;;161.10;85.80;;;;;;;-6.58;51.23;95447.83;1700115;82;21133;-49
2022/01/25 08:55:38;;;;;;;146.62;80.00;;;;;;;-6.69;51.58;95435.91;1724335;82;21025;-51
2022/01/25 08:59:52;;;;;;;170.87;93.85;;;;;;;-6.54;51.71;95435.36;1790705;78;27038;-50
2022/01/25 09:02:18;;;;;;;183.32;100.42;;;;;;;-6.56;52.05;95429.55;1731163;80;21010;-48
2022/01/25 09:04:50;;;;;;;186.80;98.33;;;;;;;-6.24;52.06;95424.09;1710080;80;21152;-52
2022/01/25 09:07:16;;;;;;;167.07;92.57;;;;;;;-5.87;51.56;95416.49;1753354;80;21399;-49
2022/01/25 09:09:43;;;;;;;171.80;92.85;;;;;;;-5.64;51.05;95418.48;1740580;80;21175;-51
2022/01/25 09:12:11;;;;;;;155.48;82.92;;;;;;;-5.49;50.79;95415.19;1737573;80;21352;-50
2022/01/25 09:14:38;;;;;;;145.95;77.50;;;;;;;-5.32;50.74;95409.66;1740123;80;21394;-51
2022/01/25 09:17:09;;;;;;;151.90;83.72;;;;;;;-5.20;50.29;95407.80;1730225;80;21881;-48
2022/01/25 09:19:38;;;;;;;150.15;81.95;;;;;;;-5.16;50.41;95402.56;1736670;80;21120;-50
2022/01/25 09:22:06;;;;;;;159.90;92.97;;;;;;;-5.08;50.61;95396.31;1745263;80;21058;-51
2022/01/25 09:24:33;;;;;;;160.37;84.65;;;;;;;-4.93;50.67;95390.30;1745746;80;21062;-53
2022/01/25 09:27:02;;;;;;;132.97;75.97;;;;;;;-4.81;50.63;95391.66;1736776;80;20981;-51
2022/01/25 09:29:29;;;;;;;164.90;84.22;;;;;;;-4.65;50.53;95391.99;1745932;80;21430;-51
2022/01/25 09:31:56;;;;;;;167.53;84.60;;;;;;;-4.49;50.16;95389.41;1737977;80;21108;-50
2022/01/25 09:34:23;;;;;;;163.18;87.30;;;;;;;-4.56;50.11;95398.05;1726161;81;21324;-50
2022/01/25 09:36:51;;;;;;;151.37;82.78;;;;;;;-4.55;50.48;95394.79;1747074;80;22256;-50
2022/01/25 09:39:17;;;;;;;186.62;97.95;;;;;;;-4.31;50.39;95385.36;1746511;80;21618;-52
2022/01/25 09:41:45;;;;;;;180.75;94.40;;;;;;;-4.06;50.00;95385.56;1738660;80;21151;-52
2022/01/25 09:44:18;;;;;;;156.63;80.38;;;;;;;-3.98;49.74;95383.30;1677800;83;21101;-53
2022/01/25 09:46:45;;;;;;;150.07;79.55;;;;;;;-3.93;49.73;95374.98;1666882;83;21082;-51
2022/01/25 09:49:12;;;;;;;145.40;79.03;;;;;;;-3.92;49.74;95363.11;1678817;83;20998;-49
2022/01/25 09:51:43;;;;;;;151.47;75.30;;;;;;;-3.78;49.79;95360.84;1669178;83;20913;-50
2022/01/25 09:54:11;;;;;;;121.60;61.75;;;;;;;-3.61;49.48;95356.52;1666939;84;21946;-54
2022/01/25 09:56:38;;;;;;;131.65;67.92;;;;;;;-3.51;49.00;95350.08;1649716;84;21094;-52
2022/01/25 09:59:04;;;;;;;123.95;63.13;;;;;;;-3.65;48.63;95353.72;1703211;80;21045;-54
2022/01/25 10:01:31;;;;;;;114.88;61.68;;;;;;;-3.92;48.98;95349.69;1743823;80;21104;-52
2022/01/25 10:04:00;;;;;;;97.75;53.28;;;;;;;-4.10;49.09;95340.33;1714876;80;21020;-50
2022/01/25 10:06:32;;;;;;;78.02;41.53;;;;;;;-4.31;49.51;95350.45;1729006;80;21142;-50
2022/01/25 10:09:01;;;;;;;78.05;45.85;;;;;;;-4.35;49.95;95342.86;1723368;81;21108;-50
2022/01/25 10:11:28;;;;;;;54.80;34.03;;;;;;;-4.43;49.90;95340.52;1717984;81;21968;-49
2022/01/25 10:13:57;;;;;;;69.67;39.25;;;;;;;-4.45;50.24;95335.29;1732440;81;21193;-50
2022/01/25 10:16:35;;;;;;;87.75;50.12;;;;;;;-4.44;50.48;95335.52;1720799;81;21060;-52
2022/01/25 10:19:05;;;;;;;69.95;39.20;;;;;;;-4.43;50.85;95324.41;1724758;81;21148;-49
2022/01/25 10:21:35;;;;;;;74.58;41.68;;;;;;;-4.24;50.74;95326.52;1722860;81;21038;-50
2022/01/25 10:24:17;;;;;;;70.92;39.55;;;;;;;-4.23;50.70;95319.45;1739063;81;21066;-51
2022/01/25 10:26:53;;;;;;;85.70;46.55;;;;;;;-4.26;50.77;95314.77;1703880;82;20994;-52
2022/01/25 10:29:27;;;;;;;75.70;41.68;;;;;;;-4.18;50.98;95305.80;1735603;81;21049;-49
2022/01/25 10:31:58;;;;;;;80.32;43.52;;;;;;;-4.16;51.00;95298.19;1732810;81;21146;-51
2022/01/25 10:34:30;;;;;;;68.92;37.55;;;;;;;-4.19;51.28;95304.24;1734173;81;21011;-50
2022/01/25 10:36:58;;;;;;;87.73;53.40;;;;;;;-4.18;51.37;95305.80;1720318;81;22124;-51
2022/01/25 10:39:33;;;;;;;96.60;51.35;;;;;;;-4.24;51.40;95299.09;1728776;81;21104;-50
2022/01/25 10:42:23;;;;;;;112.12;59.23;;;;;;;-4.24;51.56;95299.09;1711198;81;21037;-55
2022/01/25 10:45:02;;;;;;;91.17;49.93;;;;;;;-4.18;51.90;95295.06;1712807;81;21353;-52
2022/01/25 10:47:46;;;;;;;106.70;57.15;;;;;;;-3.95;51.89;95288.58;1725926;81;21313;-50
2022/01/25 10:50:20;;;;;;;111.80;60.12;;;;;;;-3.92;51.66;95281.17;1722808;81;21451;-52
2022/01/25 10:52:47;;;;;;;132.50;64.35;;;;;;;-3.98;51.96;95277.17;1706853;81;21065;-51
2022/01/25 10:55:14;;;;;;;128.32;61.55;;;;;;;-3.90;51.86;95274.91;1732393;81;21592;-52
2022/01/25 10:57:41;;;;;;;136.65;69.12;;;;;;;-3.90;51.88;95266.86;1697734;81;21267;-51
2022/01/25 11:00:13;;;;;;;145.82;70.87;;;;;;;-3.88;52.19;95268.63;1724080;80;21050;-51
2022/01/25 11:02:51;;;;;;;116.87;61.37;;;;;;;-3.77;52.07;95269.69;1729591;80;21083;-49
2022/01/25 11:05:18;;;;;;;93.65;47.03;;;;;;;-3.71;52.10;95262.95;1727670;81;21594;-53
2022/01/25 11:07:46;;;;;;;93.92;50.60;;;;;;;-3.57;51.58;95260.61;1697296;81;21168;-50
2022/01/25 11:10:20;;;;;;;108.32;52.43;;;;;;;-3.63;51.38;95256.62;1727706;81;21042;-52
2022/01/25 11:13:02;;;;;;;109.07;53.30;;;;;;;-3.54;51.45;95253.98;1720978;81;21053;-49
2022/01/25 11:15:15;;;;;;;86.05;47.93;;;;;;;-3.59;51.61;95245.39;1709582;81;21058;-49
2022/01/25 11:17:42;;;;;;;93.45;52.48;;;;;;;-3.54;51.95;95239.78;1733448;81;21131;-53
2022/01/25 11:20:10;;;;;;;118.33;61.30;;;;;;;-3.48;51.94;95229.19;1739703;81;21163;-50
2022/01/25 11:22:37;;;;;;;102.07;55.05;;;;;;;-3.40;52.13;95226.88;1667891;81;21904;-51
2022/01/25 11:25:09;;;;;;;168.62;79.05;;;;;;;-3.18;51.99;95224.94;1702298;81;21263;-50
2022/01/25 11:27:35;;;;;;;108.42;55.15;;;;;;;-2.88;51.62;95226.01;1703301;82;21077;-52
2022/01/25 11:30:10;;;;;;;98.10;54.05;;;;;;;-2.74;51.17;95210.18;1666675;81;21053;-50
2022/01/25 11:32:43;;;;;;;89.92;52.25;;;;;;;-2.62;50.97;95210.06;1709929;82;21629;-51
2022/01/25 11:35:13;;;;;;;122.02;62.25;;;;;;;-2.58;50.64;95209.56;1736433;81;21249;-49
2022/01/25 11:37:43;;;;;;;117.93;60.20;;;;;;;-2.63;50.73;95195.59;1715479;81;21113;-50
2022/01/25 11:40:31;;;;;;;135.15;70.00;;;;;;;-2.66;51.02;95197.07;1724272;81;21552;-51
2022/01/25 11:43:02;;;;;;;131.93;68.90;;;;;;;-2.62;51.14;95191.22;1730837;81;21065;-50
2022/01/25 11:45:32;;;;;;;130.27;70.15;;;;;;;-2.67;51.47;95195.52;1729061;81;21509;-53
2022/01/25 11:48:01;;;;;;;106.52;57.03;;;;;;;-2.74;51.88;95183.81;1708785;82;21408;-53
2022/01/25 11:50:42;;;;;;;102.95;54.27;;;;;;;-2.74;52.08;95185.95;1697155;82;21016;-54
2022/01/25 11:53:18;;;;;;;111.57;58.20;;;;;;;-2.78;52.35;95173.54;1713899;82;21658;-50
2022/01/25 11:55:49;;;;;;;107.05;55.55;;;;;;;-2.83;52.89;95174.59;1715753;81;21052;-51
2022/01/25 11:58:23;;;;;;;82.82;48.83;;;;;;;-2.79;53.27;95176.02;1684676;82;21545;-52
2022/01/25 12:00:54;;;;;;;81.37;46.65;;;;;;;-2.70;53.42;95169.88;1712795;82;21202;-53
2022/01/25 12:03:32;;;;;;;92.02;53.10;;;;;;;-2.54;53.33;95163.30;1703500;82;21153;-51
2022/01/25 12:06:09;;;;;;;88.50;46.68;;;;;;;-2.49;53.34;95160.31;1718763;81;21045;-49
2022/01/25 12:11:52;;;;;;;110.03;59.70;;;;;;;-2.31;53.52;95140.47;1723370;81;21597;-53
2022/01/25 12:14:50;;;;;;;111.90;60.50;;;;;;;-2.19;53.65;95140.30;1668890;83;21218;-49
2022/01/25 12:17:24;;;;;;;109.87;58.35;;;;;;;-1.94;53.64;95138.84;1659478;84;21104;-53
2022/01/25 12:19:59;;;;;;;108.10;58.95;;;;;;;-1.77;53.71;95132.41;1676500;83;21170;-54
2022/01/25 12:22:39;;;;;;;100.97;55.43;;;;;;;-1.55;53.46;95135.66;1675161;83;21069;-53
2022/01/25 12:25:34;;;;;;;99.07;55.10;;;;;;;-1.38;53.20;95129.20;1678277;83;21065;-52
2022/01/25 12:27:58;;;;;;;125.40;68.78;;;;;;;-1.26;53.13;95136.33;1674535;83;21208;-50
2022/01/25 12:30:39;;;;;;;137.85;79.55;;;;;;;-1.25;53.18;95132.48;1677503;82;21017;-50
2022/01/25 12:33:21;;;;;;;129.60;69.45;;;;;;;-1.27;53.41;95123.98;1671686;83;21053;-52
2022/01/25 12:36:00;;;;;;;146.30;79.17;;;;;;;-1.30;53.41;95126.05;1684512;84;21042;-52
2022/01/25 12:38:43;;;;;;;147.50;81.00;;;;;;;-1.46;53.52;95122.72;1698315;82;21228;-51
2022/01/25 12:41:20;;;;;;;;;;;;;;;-1.52;53.61;95120.12;1713374;82;21152;-51
2022/01/25 12:43:54;;;;;;;144.85;68.80;;;;;;;-1.51;54.14;95110.30;1670809;83;20533;-54
2022/01/25 12:46:24;;;;;;;132.22;68.07;;;;;;;-1.43;53.72;95108.50;1692411;82;21070;-52
2022/01/25 12:49:00;;;;;;;144.00;73.45;;;;;;;-1.60;54.01;95105.74;1665461;83;21188;-51
2022/01/25 12:51:29;;;;;;;160.75;84.85;;;;;;;-1.72;54.28;95107.86;1690726;83;21665;-51